sensor_id;sensor_type;location;lat;lon;timestamp;pressure;altitude;pressure_sealevel;temperature;humidity
37486;BME280;23341;50.296;18.960;2023-04-23T00:03:45;49246.72;;;-144.43;53.50
37486;BME280;23341;50.296;18.960;2023-04-23T00:08:52;49218.72;;;-144.43;52.34
37486;BME280;23341;50.296;18.960;2023-04-23T00:13:57;49232.72;;;-144.43;52.82
37486;BME280;23341;50.296;18.960;2023-04-23T00:19:03;49268.69;;;-144.43;53.85
37486;BME280;23341;50.296;18.960;2023-04-23T00:24:08;49252.69;;;-144.43;53.42
37486;BME280;23341;50.296;18.960;2023-04-23T00:29:12;49246.72;;;-144.43;53.37
37486;BME280;23341;50.296;18.960;2023-04-23T00:34:18;49256.69;;;-144.43;52.92
37486;BME280;23341;50.296;18.960;2023-04-23T00:39:23;49216.72;;;-144.43;53.38
37486;BME280;23341;50.296;18.960;2023-04-23T00:44:27;49228.72;;;-144.43;54.03
37486;BME280;23341;50.296;18.960;2023-04-23T00:49:34;49256.69;;;-144.43;57.12
37486;BME280;23341;50.296;18.960;2023-04-23T00:54:39;49238.72;;;-144.43;54.41
37486;BME280;23341;50.296;18.960;2023-04-23T00:59:44;49194.75;;;-144.43;54.68
37486;BME280;23341;50.296;18.960;2023-04-23T01:04:50;49214.72;;;-144.43;55.90
37486;BME280;23341;50.296;18.960;2023-04-23T01:09:54;49194.75;;;-144.43;57.71
37486;BME280;23341;50.296;18.960;2023-04-23T01:14:59;49234.72;;;-144.43;58.73
37486;BME280;23341;50.296;18.960;2023-04-23T01:20:06;49250.69;;;-144.43;59.46
37486;BME280;23341;50.296;18.960;2023-04-23T01:25:13;49222.72;;;-144.43;59.44
37486;BME280;23341;50.296;18.960;2023-04-23T01:30:17;49206.72;;;-144.43;59.82
37486;BME280;23341;50.296;18.960;2023-04-23T01:35:22;49208.72;;;-144.43;61.35
37486;BME280;23341;50.296;18.960;2023-04-23T01:40:28;49202.75;;;-144.43;59.35
37486;BME280;23341;50.296;18.960;2023-04-23T01:45:33;49200.75;;;-144.43;60.09
37486;BME280;23341;50.296;18.960;2023-04-23T01:50:38;49196.75;;;-144.43;62.33
37486;BME280;23341;50.296;18.960;2023-04-23T01:55:45;49208.72;;;-144.43;61.17
37486;BME280;23341;50.296;18.960;2023-04-23T02:00:50;49178.75;;;-144.43;60.45
37486;BME280;23341;50.296;18.960;2023-04-23T02:05:55;49190.75;;;-144.43;63.79
37486;BME280;23341;50.296;18.960;2023-04-23T02:11:04;49230.72;;;-144.43;63.90
37486;BME280;23341;50.296;18.960;2023-04-23T02:16:09;49222.72;;;-144.43;64.23
37486;BME280;23341;50.296;18.960;2023-04-23T02:21:14;49242.72;;;-144.43;63.82
37486;BME280;23341;50.296;18.960;2023-04-23T02:26:20;49180.75;;;-144.43;64.57
37486;BME280;23341;50.296;18.960;2023-04-23T02:31:26;49178.75;;;-144.43;64.21
37486;BME280;23341;50.296;18.960;2023-04-23T02:36:31;49200.75;;;-144.43;64.76
37486;BME280;23341;50.296;18.960;2023-04-23T02:41:37;49222.72;;;-144.43;64.55
37486;BME280;23341;50.296;18.960;2023-04-23T02:46:41;49238.72;;;-144.43;66.47
37486;BME280;23341;50.296;18.960;2023-04-23T02:51:46;49224.72;;;-144.43;67.17
37486;BME280;23341;50.296;18.960;2023-04-23T02:56:52;49226.72;;;-144.43;67.97
37486;BME280;23341;50.296;18.960;2023-04-23T03:01:56;49222.72;;;-144.43;69.08
37486;BME280;23341;50.296;18.960;2023-04-23T03:07:00;49224.72;;;-144.43;68.87
37486;BME280;23341;50.296;18.960;2023-04-23T03:12:08;49234.72;;;-144.43;68.71
37486;BME280;23341;50.296;18.960;2023-04-23T03:17:13;49194.75;;;-144.43;69.59
37486;BME280;23341;50.296;18.960;2023-04-23T03:22:17;49214.72;;;-144.43;70.84
37486;BME280;23341;50.296;18.960;2023-04-23T03:27:23;49250.69;;;-144.43;70.05
37486;BME280;23341;50.296;18.960;2023-04-23T03:32:28;49258.69;;;-144.43;70.99
37486;BME280;23341;50.296;18.960;2023-04-23T03:37:32;49270.69;;;-144.43;70.70
37486;BME280;23341;50.296;18.960;2023-04-23T03:42:39;49234.72;;;-144.43;70.39
37486;BME280;23341;50.296;18.960;2023-04-23T03:47:47;49284.69;;;-144.43;70.53
37486;BME280;23341;50.296;18.960;2023-04-23T03:52:52;49252.69;;;-144.43;71.31
37486;BME280;23341;50.296;18.960;2023-04-23T03:58:18;49264.69;;;-144.43;71.46
37486;BME280;23341;50.296;18.960;2023-04-23T04:03:23;49266.69;;;-144.43;71.72
37486;BME280;23341;50.296;18.960;2023-04-23T04:08:28;49286.69;;;-144.43;71.47
37486;BME280;23341;50.296;18.960;2023-04-23T04:13:34;49268.69;;;-144.43;70.97
37486;BME280;23341;50.296;18.960;2023-04-23T04:18:38;49268.69;;;-144.43;71.47
37486;BME280;23341;50.296;18.960;2023-04-23T04:23:43;49292.69;;;-144.43;71.90
37486;BME280;23341;50.296;18.960;2023-04-23T04:28:49;49294.66;;;-144.43;72.02
37486;BME280;23341;50.296;18.960;2023-04-23T04:33:55;49282.69;;;-144.43;71.80
37486;BME280;23341;50.296;18.960;2023-04-23T04:38:59;49326.66;;;-144.43;71.04
37486;BME280;23341;50.296;18.960;2023-04-23T04:44:07;49338.63;;;-144.43;69.71
37486;BME280;23341;50.296;18.960;2023-04-23T04:49:11;49354.63;;;-144.43;67.97
37486;BME280;23341;50.296;18.960;2023-04-23T04:54:16;49398.59;;;-144.43;65.48
37486;BME280;23341;50.296;18.960;2023-04-23T04:59:22;49416.59;;;-144.43;63.47
37486;BME280;23341;50.296;18.960;2023-04-23T05:04:26;49420.59;;;-144.43;61.29
37486;BME280;23341;50.296;18.960;2023-04-23T05:09:31;49450.56;;;-144.43;59.53
37486;BME280;23341;50.296;18.960;2023-04-23T05:14:37;49566.50;;;-144.43;55.68
37486;BME280;23341;50.296;18.960;2023-04-23T05:19:42;49626.44;;;-144.43;51.79
37486;BME280;23341;50.296;18.960;2023-04-23T05:24:46;49620.47;;;-144.43;51.36
37486;BME280;23341;50.296;18.960;2023-04-23T05:29:53;49614.47;;;-144.43;52.20
37486;BME280;23341;50.296;18.960;2023-04-23T05:34:57;49602.47;;;-144.43;52.29
37486;BME280;23341;50.296;18.960;2023-04-23T05:40:02;49610.47;;;-144.43;52.07
37486;BME280;23341;50.296;18.960;2023-04-23T05:45:11;49706.41;;;-144.43;50.57
37486;BME280;23341;50.296;18.960;2023-04-23T05:50:15;49754.38;;;-144.43;48.22
37486;BME280;23341;50.296;18.960;2023-04-23T05:55:20;49874.31;;;-144.43;45.67
37486;BME280;23341;50.296;18.960;2023-04-23T06:00:27;50190.16;;;-144.43;39.79
37486;BME280;23341;50.296;18.960;2023-04-23T06:05:32;50735.94;;;-144.43;35.58
37486;BME280;23341;50.296;18.960;2023-04-23T06:10:36;51005.84;;;-144.43;33.36
37486;BME280;23341;50.296;18.960;2023-04-23T06:15:42;51509.75;;;-144.43;31.11
37486;BME280;23341;50.296;18.960;2023-04-23T06:20:47;51113.81;;;-144.43;30.97
37486;BME280;23341;50.296;18.960;2023-04-23T06:25:53;50961.84;;;-144.43;31.27
37486;BME280;23341;50.296;18.960;2023-04-23T06:30:59;51069.81;;;-144.43;30.66
37486;BME280;23341;50.296;18.960;2023-04-23T06:36:06;50949.84;;;-144.43;31.46
37486;BME280;23341;50.296;18.960;2023-04-23T06:41:13;51425.75;;;-144.43;29.40
37486;BME280;23341;50.296;18.960;2023-04-23T06:46:19;51213.78;;;-144.43;29.93
37486;BME280;23341;50.296;18.960;2023-04-23T06:51:24;51423.75;;;-144.43;28.81
37486;BME280;23341;50.296;18.960;2023-04-23T06:56:29;50973.84;;;-144.43;29.77
37486;BME280;23341;50.296;18.960;2023-04-23T07:01:35;51347.75;;;-144.43;29.13
37486;BME280;23341;50.296;18.960;2023-04-23T07:06:39;51205.78;;;-144.43;29.00
37486;BME280;23341;50.296;18.960;2023-04-23T07:11:44;50977.84;;;-144.43;30.13
37486;BME280;23341;50.296;18.960;2023-04-23T07:16:50;51077.81;;;-144.43;29.66
37486;BME280;23341;50.296;18.960;2023-04-23T07:21:56;51441.75;;;-144.43;28.27
37486;BME280;23341;50.296;18.960;2023-04-23T07:27:00;51323.78;;;-144.43;28.83
37486;BME280;23341;50.296;18.960;2023-04-23T07:32:32;51509.75;;;-144.43;28.21
37486;BME280;23341;50.296;18.960;2023-04-23T07:37:37;51161.81;;;-144.43;29.41
37486;BME280;23341;50.296;18.960;2023-04-23T07:42:41;51749.72;;;-144.43;27.48
37486;BME280;23341;50.296;18.960;2023-04-23T07:47:49;51765.72;;;-144.43;27.47
37486;BME280;23341;50.296;18.960;2023-04-23T07:52:54;52175.69;;;-144.43;26.44
37486;BME280;23341;50.296;18.960;2023-04-23T07:57:58;51561.72;;;-144.43;27.82
37486;BME280;23341;50.296;18.960;2023-04-23T08:03:04;52301.72;;;-144.43;26.32
37486;BME280;23341;50.296;18.960;2023-04-23T08:08:10;52553.72;;;-144.43;25.56
37486;BME280;23341;50.296;18.960;2023-04-23T08:13:15;52643.75;;;-144.43;25.14
37486;BME280;23341;50.296;18.960;2023-04-23T08:18:21;51709.72;;;-144.43;26.61
37486;BME280;23341;50.296;18.960;2023-04-23T08:23:25;51737.72;;;-144.43;26.82
37486;BME280;23341;50.296;18.960;2023-04-23T08:28:30;51639.72;;;-144.43;27.13
37486;BME280;23341;50.296;18.960;2023-04-23T08:33:35;51103.81;;;-144.43;28.25
37486;BME280;23341;50.296;18.960;2023-04-23T08:38:39;51021.84;;;-144.43;28.38
37486;BME280;23341;50.296;18.960;2023-04-23T08:43:48;50941.88;;;-144.43;28.14
37486;BME280;23341;50.296;18.960;2023-04-23T08:48:59;50797.91;;;-144.43;29.11
37486;BME280;23341;50.296;18.960;2023-04-23T08:54:30;50967.84;;;-144.43;28.32
37486;BME280;23341;50.296;18.960;2023-04-23T08:59:38;50941.88;;;-144.43;28.29
37486;BME280;23341;50.296;18.960;2023-04-23T09:04:45;50691.94;;;-144.43;28.72
37486;BME280;23341;50.296;18.960;2023-04-23T09:09:53;50647.97;;;-144.43;28.75
37486;BME280;23341;50.296;18.960;2023-04-23T09:15:01;50593.97;;;-144.43;28.04
37486;BME280;23341;50.296;18.960;2023-04-23T09:27:25;50843.88;;;-144.43;28.32
37486;BME280;23341;50.296;18.960;2023-04-23T09:32:30;50767.91;;;-144.43;28.36
37486;BME280;23341;50.296;18.960;2023-04-23T09:37:35;50625.97;;;-144.43;28.48
37486;BME280;23341;50.296;18.960;2023-04-23T09:48:44;50789.91;;;-144.43;28.39
37486;BME280;23341;50.296;18.960;2023-04-23T09:53:48;50833.91;;;-144.43;28.63
37486;BME280;23341;50.296;18.960;2023-04-23T09:58:53;51209.78;;;-144.43;27.05
37486;BME280;23341;50.296;18.960;2023-04-23T10:09:46;50917.88;;;-144.43;28.71
37486;BME280;23341;50.296;18.960;2023-04-23T10:20:37;50945.84;;;-144.43;28.26
37486;BME280;23341;50.296;18.960;2023-04-23T10:25:44;50861.88;;;-144.43;28.52
37486;BME280;23341;50.296;18.960;2023-04-23T10:30:53;50847.88;;;-144.43;28.46
37486;BME280;23341;50.296;18.960;2023-04-23T10:41:22;50827.91;;;-144.43;28.90
37486;BME280;23341;50.296;18.960;2023-04-23T10:46:30;50891.88;;;-144.43;28.76
37486;BME280;23341;50.296;18.960;2023-04-23T10:58:53;50985.84;;;-144.43;28.83
37486;BME280;23341;50.296;18.960;2023-04-23T11:03:57;51241.78;;;-144.43;28.41
37486;BME280;23341;50.296;18.960;2023-04-23T11:09:36;51257.78;;;-144.43;27.65
37486;BME280;23341;50.296;18.960;2023-04-23T11:14:55;51095.81;;;-144.43;28.43
37486;BME280;23341;50.296;18.960;2023-04-23T11:20:10;51337.78;;;-144.43;28.17
37486;BME280;23341;50.296;18.960;2023-04-23T11:25:19;51269.78;;;-144.43;27.74
37486;BME280;23341;50.296;18.960;2023-04-23T11:36:53;51207.78;;;-144.43;28.20
37486;BME280;23341;50.296;18.960;2023-04-23T11:41:58;50909.88;;;-144.43;28.93
37486;BME280;23341;50.296;18.960;2023-04-23T11:47:06;50973.84;;;-144.43;29.22
37486;BME280;23341;50.296;18.960;2023-04-23T11:58:08;50763.91;;;-144.43;29.95
37486;BME280;23341;50.296;18.960;2023-04-23T12:03:13;50909.88;;;-144.43;29.17
37486;BME280;23341;50.296;18.960;2023-04-23T12:15:26;51051.84;;;-144.43;28.66
37486;BME280;23341;50.296;18.960;2023-04-23T12:20:31;51105.81;;;-144.43;28.83
37486;BME280;23341;50.296;18.960;2023-04-23T12:25:39;51379.75;;;-144.43;28.09
37486;BME280;23341;50.296;18.960;2023-04-23T12:36:54;51161.81;;;-144.43;28.35
37486;BME280;23341;50.296;18.960;2023-04-23T12:42:02;51273.78;;;-144.43;28.28
37486;BME280;23341;50.296;18.960;2023-04-23T12:53:31;51031.84;;;-144.43;29.56
37486;BME280;23341;50.296;18.960;2023-04-23T12:58:36;50977.84;;;-144.43;28.66
37486;BME280;23341;50.296;18.960;2023-04-23T13:03:42;51141.81;;;-144.43;28.54
37486;BME280;23341;50.296;18.960;2023-04-23T13:14:28;50833.91;;;-144.43;29.68
37486;BME280;23341;50.296;18.960;2023-04-23T13:25:40;51847.72;;;-144.43;25.29
37486;BME280;23341;50.296;18.960;2023-04-23T13:30:46;51877.72;;;-144.43;25.48
37486;BME280;23341;50.296;18.960;2023-04-23T13:35:51;52107.69;;;-144.43;25.04
37486;BME280;23341;50.296;18.960;2023-04-23T13:41:00;52221.72;;;-144.43;24.78
37486;BME280;23341;50.296;18.960;2023-04-23T13:53:42;51913.72;;;-144.43;25.55
37486;BME280;23341;50.296;18.960;2023-04-23T13:58:46;50937.88;;;-144.43;28.53
37486;BME280;23341;50.296;18.960;2023-04-23T14:03:50;50709.94;;;-144.43;29.44
37486;BME280;23341;50.296;18.960;2023-04-23T14:14:40;51121.81;;;-144.43;27.86
37486;BME280;23341;50.296;18.960;2023-04-23T14:19:47;51675.72;;;-144.43;26.49
37486;BME280;23341;50.296;18.960;2023-04-23T14:24:55;52525.72;;;-144.43;24.80
37486;BME280;23341;50.296;18.960;2023-04-23T14:35:24;50897.88;;;-144.43;28.61
37486;BME280;23341;50.296;18.960;2023-04-23T14:40:43;51001.84;;;-144.43;28.41
37486;BME280;23341;50.296;18.960;2023-04-23T14:52:55;50705.94;;;-144.43;29.49
37486;BME280;23341;50.296;18.960;2023-04-23T14:58:01;50585.97;;;-144.43;28.62
37486;BME280;23341;50.296;18.960;2023-04-23T15:03:05;50613.97;;;-144.43;28.75
37486;BME280;23341;50.296;18.960;2023-04-23T15:21:36;51035.84;;;-144.43;29.79
37486;BME280;23341;50.296;18.960;2023-04-23T15:26:41;50943.84;;;-144.43;29.74
37486;BME280;23341;50.296;18.960;2023-04-23T15:31:47;50801.91;;;-144.43;30.41
37486;BME280;23341;50.296;18.960;2023-04-23T15:36:54;50955.84;;;-144.43;30.05
37486;BME280;23341;50.296;18.960;2023-04-23T15:41:59;51105.81;;;-144.43;29.63
37486;BME280;23341;50.296;18.960;2023-04-23T15:47:04;51131.81;;;-144.43;29.33
37486;BME280;23341;50.296;18.960;2023-04-23T15:58:29;50889.88;;;-144.43;29.88
37486;BME280;23341;50.296;18.960;2023-04-23T16:03:34;50745.91;;;-144.43;30.57
37486;BME280;23341;50.296;18.960;2023-04-23T16:08:40;50671.94;;;-144.43;31.10
37486;BME280;23341;50.296;18.960;2023-04-23T16:13:49;50633.97;;;-144.43;31.35
37486;BME280;23341;50.296;18.960;2023-04-23T16:18:54;50599.97;;;-144.43;31.12
37486;BME280;23341;50.296;18.960;2023-04-23T16:23:59;50641.97;;;-144.43;31.11
37486;BME280;23341;50.296;18.960;2023-04-23T16:29:05;50567.97;;;-144.43;31.41
37486;BME280;23341;50.296;18.960;2023-04-23T16:34:24;50542.00;;;-144.43;32.04
37486;BME280;23341;50.296;18.960;2023-04-23T16:39:28;50567.97;;;-144.43;32.01
37486;BME280;23341;50.296;18.960;2023-04-23T16:44:34;50532.00;;;-144.43;32.05
37486;BME280;23341;50.296;18.960;2023-04-23T16:49:39;50514.00;;;-144.43;32.23
37486;BME280;23341;50.296;18.960;2023-04-23T16:54:43;50462.03;;;-144.43;32.56
37486;BME280;23341;50.296;18.960;2023-04-23T16:59:52;50474.03;;;-144.43;32.29
37486;BME280;23341;50.296;18.960;2023-04-23T17:04:57;50484.03;;;-144.43;32.70
37486;BME280;23341;50.296;18.960;2023-04-23T17:10:01;50402.06;;;-144.43;32.52
37486;BME280;23341;50.296;18.960;2023-04-23T17:15:08;50490.00;;;-144.43;32.71
37486;BME280;23341;50.296;18.960;2023-04-23T17:20:13;50438.03;;;-144.43;32.32
37486;BME280;23341;50.296;18.960;2023-04-23T17:25:18;50430.03;;;-144.43;32.69
37486;BME280;23341;50.296;18.960;2023-04-23T17:30:23;50398.06;;;-144.43;35.08
37486;BME280;23341;50.296;18.960;2023-04-23T17:35:28;50414.03;;;-144.43;35.94
37486;BME280;23341;50.296;18.960;2023-04-23T17:40:32;50334.09;;;-144.43;37.05
37486;BME280;23341;50.296;18.960;2023-04-23T17:45:40;50326.09;;;-144.43;37.31
37486;BME280;23341;50.296;18.960;2023-04-23T17:50:45;50358.06;;;-144.43;38.32
37486;BME280;23341;50.296;18.960;2023-04-23T17:55:49;50372.06;;;-144.43;37.95
37486;BME280;23341;50.296;18.960;2023-04-23T18:00:56;50360.06;;;-144.43;37.51
37486;BME280;23341;50.296;18.960;2023-04-23T18:06:01;50326.09;;;-144.43;38.17
37486;BME280;23341;50.296;18.960;2023-04-23T18:11:06;50304.09;;;-144.43;39.21
37486;BME280;23341;50.296;18.960;2023-04-23T18:16:12;50302.09;;;-144.43;39.24
37486;BME280;23341;50.296;18.960;2023-04-23T18:21:16;50284.09;;;-144.43;38.44
37486;BME280;23341;50.296;18.960;2023-04-23T18:26:20;50156.16;;;-144.43;41.59
37486;BME280;23341;50.296;18.960;2023-04-23T18:31:27;50070.19;;;-144.43;42.43
37486;BME280;23341;50.296;18.960;2023-04-23T18:36:32;50054.22;;;-144.43;44.48
37486;BME280;23341;50.296;18.960;2023-04-23T18:41:37;50114.19;;;-144.43;45.05
37486;BME280;23341;50.296;18.960;2023-04-23T18:46:43;50122.19;;;-144.43;46.04
37486;BME280;23341;50.296;18.960;2023-04-23T18:51:49;50122.19;;;-144.43;48.89
37486;BME280;23341;50.296;18.960;2023-04-23T18:56:54;50072.19;;;-144.43;49.97
37486;BME280;23341;50.296;18.960;2023-04-23T19:02:00;50054.22;;;-144.43;51.23
37486;BME280;23341;50.296;18.960;2023-04-23T19:07:06;50066.22;;;-144.43;51.94
37486;BME280;23341;50.296;18.960;2023-04-23T19:12:10;49990.25;;;-144.43;51.51
37486;BME280;23341;50.296;18.960;2023-04-23T19:17:16;49984.25;;;-144.43;50.52
37486;BME280;23341;50.296;18.960;2023-04-23T19:22:21;50018.22;;;-144.43;48.88
37486;BME280;23341;50.296;18.960;2023-04-23T19:27:27;50040.22;;;-144.43;49.20
37486;BME280;23341;50.296;18.960;2023-04-23T19:32:33;49984.25;;;-144.43;49.36
37486;BME280;23341;50.296;18.960;2023-04-23T19:37:37;50006.25;;;-144.43;51.29
37486;BME280;23341;50.296;18.960;2023-04-23T19:42:42;49986.25;;;-144.43;50.27
37486;BME280;23341;50.296;18.960;2023-04-23T19:47:47;50026.22;;;-144.43;51.16
37486;BME280;23341;50.296;18.960;2023-04-23T19:52:52;49954.25;;;-144.43;50.86
37486;BME280;23341;50.296;18.960;2023-04-23T19:57:57;49968.25;;;-144.43;51.37
37486;BME280;23341;50.296;18.960;2023-04-23T20:03:02;49972.25;;;-144.43;51.20
37486;BME280;23341;50.296;18.960;2023-04-23T20:08:07;49938.28;;;-144.43;52.06
37486;BME280;23341;50.296;18.960;2023-04-23T20:13:17;49882.31;;;-144.43;54.09
37486;BME280;23341;50.296;18.960;2023-04-23T20:18:25;49898.28;;;-144.43;53.83
37486;BME280;23341;50.296;18.960;2023-04-23T20:23:31;49858.31;;;-144.43;56.07
37486;BME280;23341;50.296;18.960;2023-04-23T20:28:35;49838.31;;;-144.43;56.34
37486;BME280;23341;50.296;18.960;2023-04-23T20:33:41;49854.31;;;-144.43;57.71
37486;BME280;23341;50.296;18.960;2023-04-23T20:38:46;49834.34;;;-144.43;57.00
37486;BME280;23341;50.296;18.960;2023-04-23T20:43:50;49806.34;;;-144.43;58.39
37486;BME280;23341;50.296;18.960;2023-04-23T20:48:56;49786.34;;;-144.43;59.22
37486;BME280;23341;50.296;18.960;2023-04-23T20:54:03;49782.34;;;-144.43;59.38
37486;BME280;23341;50.296;18.960;2023-04-23T20:59:07;49794.34;;;-144.43;61.98
37486;BME280;23341;50.296;18.960;2023-04-23T21:04:13;49762.38;;;-144.43;60.73
37486;BME280;23341;50.296;18.960;2023-04-23T21:09:18;49782.34;;;-144.43;62.94
37486;BME280;23341;50.296;18.960;2023-04-23T21:14:22;49782.34;;;-144.43;61.98
37486;BME280;23341;50.296;18.960;2023-04-23T21:19:28;49806.34;;;-144.43;63.03
37486;BME280;23341;50.296;18.960;2023-04-23T21:24:33;49748.38;;;-144.43;64.08
37486;BME280;23341;50.296;18.960;2023-04-23T21:29:37;49788.34;;;-144.43;64.72
37486;BME280;23341;50.296;18.960;2023-04-23T21:34:43;49756.38;;;-144.43;64.02
37486;BME280;23341;50.296;18.960;2023-04-23T21:39:48;49730.38;;;-144.43;63.84
37486;BME280;23341;50.296;18.960;2023-04-23T21:44:52;49714.41;;;-144.43;64.12
37486;BME280;23341;50.296;18.960;2023-04-23T21:49:58;49744.38;;;-144.43;64.31
37486;BME280;23341;50.296;18.960;2023-04-23T21:55:03;49764.38;;;-144.43;66.15
37486;BME280;23341;50.296;18.960;2023-04-23T22:00:09;49778.38;;;-144.43;66.62
37486;BME280;23341;50.296;18.960;2023-04-23T22:05:17;49738.38;;;-144.43;68.04
37486;BME280;23341;50.296;18.960;2023-04-23T22:10:23;49764.38;;;-144.43;68.77
37486;BME280;23341;50.296;18.960;2023-04-23T22:15:28;49766.38;;;-144.43;69.54
37486;BME280;23341;50.296;18.960;2023-04-23T22:20:34;49758.38;;;-144.43;70.68
37486;BME280;23341;50.296;18.960;2023-04-23T22:25:39;49744.38;;;-144.43;70.94
37486;BME280;23341;50.296;18.960;2023-04-23T22:30:43;49754.38;;;-144.43;71.75
37486;BME280;23341;50.296;18.960;2023-04-23T22:35:49;49718.41;;;-144.43;71.69
37486;BME280;23341;50.296;18.960;2023-04-23T22:40:54;49770.38;;;-144.43;70.97
37486;BME280;23341;50.296;18.960;2023-04-23T22:45:58;49760.38;;;-144.43;70.25
37486;BME280;23341;50.296;18.960;2023-04-23T22:51:04;49762.38;;;-144.43;71.99
37486;BME280;23341;50.296;18.960;2023-04-23T22:56:08;49742.38;;;-144.43;71.17
37486;BME280;23341;50.296;18.960;2023-04-23T23:01:12;49752.38;;;-144.43;70.98
37486;BME280;23341;50.296;18.960;2023-04-23T23:06:18;49768.38;;;-144.43;72.27
37486;BME280;23341;50.296;18.960;2023-04-23T23:11:24;49772.38;;;-144.43;72.98
37486;BME280;23341;50.296;18.960;2023-04-23T23:16:30;49756.38;;;-144.43;72.21
37486;BME280;23341;50.296;18.960;2023-04-23T23:21:37;49776.38;;;-144.43;73.58
37486;BME280;23341;50.296;18.960;2023-04-23T23:26:41;49792.34;;;-144.43;73.90
37486;BME280;23341;50.296;18.960;2023-04-23T23:31:45;49752.38;;;-144.43;71.64
37486;BME280;23341;50.296;18.960;2023-04-23T23:36:52;49774.38;;;-144.43;73.78
37486;BME280;23341;50.296;18.960;2023-04-23T23:41:56;49746.38;;;-144.43;74.06
37486;BME280;23341;50.296;18.960;2023-04-23T23:47:01;49678.41;;;-144.43;66.13
37486;BME280;23341;50.296;18.960;2023-04-23T23:52:07;49704.41;;;-144.43;66.59
37486;BME280;23341;50.296;18.960;2023-04-23T23:57:11;49734.38;;;-144.43;66.49
